createdAt,value
2023-04-11T00:00:29.778Z,7.36
2023-04-11T00:01:02.260Z,8.16
2023-04-11T00:01:34.782Z,6.40
2023-04-11T00:02:07.289Z,6.08
2023-04-11T00:02:39.768Z,8.40
2023-04-11T00:03:12.303Z,5.84
2023-04-11T00:03:44.836Z,8.56
2023-04-11T00:04:17.262Z,12.09
2023-04-11T00:04:49.724Z,7.60
2023-04-11T00:05:22.145Z,10.48
2023-04-11T00:05:54.659Z,8.88
2023-04-11T00:06:27.156Z,13.93
2023-04-11T00:06:59.664Z,8.96
2023-04-11T00:07:32.148Z,8.32
2023-04-11T00:08:04.637Z,8.16
2023-04-11T00:08:37.100Z,6.08
2023-04-11T00:09:09.602Z,10.24
2023-04-11T00:09:42.130Z,9.92
2023-04-11T00:10:14.624Z,10.57
2023-04-11T00:10:47.115Z,9.68
2023-04-11T00:11:19.593Z,9.44
2023-04-11T00:11:52.066Z,8.48
2023-04-11T00:12:24.527Z,7.76
2023-04-11T00:12:57.059Z,6.72
2023-04-11T00:13:29.545Z,6.64
2023-04-11T00:14:02.059Z,7.44
2023-04-11T00:14:34.535Z,8.88
2023-04-11T00:15:07.003Z,7.36
2023-04-11T00:15:39.495Z,9.28
2023-04-11T00:16:11.944Z,13.21
2023-04-11T00:16:44.465Z,9.44
2023-04-11T00:17:16.933Z,11.21
2023-04-11T00:17:49.447Z,9.20
2023-04-11T00:18:21.878Z,8.64
2023-04-11T00:18:54.644Z,8.24
2023-04-11T00:19:26.874Z,10.32
2023-04-11T00:19:59.330Z,9.12
2023-04-11T00:20:31.820Z,8.24
2023-04-11T00:21:04.293Z,8.16
2023-04-11T00:21:36.801Z,6.88
2023-04-11T00:22:09.270Z,10.73
2023-04-11T00:22:41.718Z,9.04
2023-04-11T00:23:14.184Z,6.24
2023-04-11T00:23:46.671Z,8.80
2023-04-11T00:24:19.145Z,6.48
2023-04-11T00:24:51.609Z,12.25
2023-04-11T00:25:24.106Z,6.24
2023-04-11T00:25:56.638Z,6.56
2023-04-11T00:26:29.098Z,5.76
2023-04-11T00:27:01.584Z,12.73
2023-04-11T00:27:34.088Z,10.48
2023-04-11T00:28:06.577Z,8.80
2023-04-11T00:28:39.035Z,7.76
2023-04-11T00:29:11.499Z,7.84
2023-04-11T00:29:43.987Z,10.48
2023-04-11T00:30:16.433Z,5.84
2023-04-11T00:30:48.905Z,7.92
2023-04-11T00:31:21.515Z,11.77
2023-04-11T00:31:53.914Z,7.36
2023-04-11T00:32:26.435Z,5.76
2023-04-11T00:32:58.923Z,7.12
2023-04-11T00:33:31.354Z,8.88
2023-04-11T00:34:03.803Z,12.57
2023-04-11T00:34:36.309Z,10.65
2023-04-11T00:35:08.834Z,8.56
2023-04-11T00:35:41.229Z,7.60
2023-04-11T00:36:13.797Z,9.92
2023-04-11T00:36:46.306Z,7.20
2023-04-11T00:37:18.729Z,7.68
2023-04-11T00:37:51.215Z,6.00
2023-04-11T00:38:23.699Z,7.04
2023-04-11T00:38:56.358Z,14.25
2023-04-11T00:39:28.685Z,10.08
2023-04-11T00:40:01.206Z,8.72
2023-04-11T00:40:33.602Z,9.04
2023-04-11T00:41:06.082Z,12.33
2023-04-11T00:41:38.563Z,12.49
2023-04-11T00:42:11.016Z,11.37
2023-04-11T00:42:43.585Z,13.29
2023-04-11T00:43:16.063Z,11.29
2023-04-11T00:43:48.517Z,7.36
2023-04-11T00:44:20.991Z,10.08
2023-04-11T00:44:53.459Z,12.49
2023-04-11T00:45:25.918Z,10.89
2023-04-11T00:45:58.439Z,4.88
2023-04-11T00:46:30.869Z,12.09
2023-04-11T00:47:03.360Z,6.24
2023-04-11T00:47:35.878Z,10.81
2023-04-11T00:48:08.405Z,10.24
2023-04-11T00:48:40.809Z,12.97
2023-04-11T00:49:13.295Z,10.65
2023-04-11T00:49:45.774Z,9.44
2023-04-11T00:50:18.302Z,10.08
2023-04-11T00:50:50.831Z,8.56
2023-04-11T00:51:23.289Z,11.53
2023-04-11T00:51:55.765Z,9.36
2023-04-11T00:52:28.281Z,10.89
2023-04-11T00:53:00.787Z,11.29
2023-04-11T00:53:33.292Z,8.88
2023-04-11T00:54:05.748Z,7.36
2023-04-11T00:54:38.225Z,8.32
2023-04-11T00:55:10.692Z,7.76
2023-04-11T00:55:43.176Z,9.60
2023-04-11T00:56:15.662Z,9.28
2023-04-11T00:56:48.162Z,10.00
2023-04-11T00:57:20.609Z,9.04
2023-04-11T00:57:53.128Z,6.48
2023-04-11T00:58:25.585Z,7.76
2023-04-11T00:58:58.058Z,10.16
2023-04-11T00:59:30.545Z,8.56
2023-04-11T01:00:03.087Z,10.89
2023-04-11T01:00:35.537Z,8.48
2023-04-11T01:01:08.019Z,7.76
2023-04-11T01:01:40.530Z,11.13
2023-04-11T01:02:13.021Z,8.24
2023-04-11T01:02:45.591Z,10.24
2023-04-11T01:03:18.124Z,12.01
2023-04-11T01:03:50.499Z,8.00
2023-04-11T01:04:22.845Z,6.64
2023-04-11T01:04:55.317Z,5.76
2023-04-11T01:05:27.784Z,7.84
2023-04-11T01:06:00.258Z,9.76
2023-04-11T01:06:32.751Z,7.04
2023-04-11T01:07:05.208Z,9.92
2023-04-11T01:07:37.730Z,11.85
2023-04-11T01:08:10.192Z,9.04
2023-04-11T01:08:42.685Z,10.32
2023-04-11T01:09:15.166Z,6.88
2023-04-11T01:09:47.696Z,7.60
2023-04-11T01:10:20.169Z,9.04
2023-04-11T01:10:52.650Z,12.73
2023-04-11T01:11:25.131Z,9.92
2023-04-11T01:11:57.674Z,8.96
2023-04-11T01:12:30.206Z,8.72
2023-04-11T01:13:02.708Z,8.00
2023-04-11T01:13:35.160Z,7.84
2023-04-11T01:14:07.715Z,10.00
2023-04-11T01:14:40.152Z,11.61
2023-04-11T01:15:12.629Z,14.97
2023-04-11T01:15:45.142Z,10.24
2023-04-11T01:16:17.731Z,6.96
2023-04-11T01:16:50.159Z,6.80
2023-04-11T01:17:22.687Z,5.76
2023-04-11T01:17:55.092Z,7.68
2023-04-11T01:18:27.547Z,10.65
2023-04-11T01:19:00.052Z,5.44
2023-04-11T01:19:32.525Z,15.05
2023-04-11T01:20:05.017Z,8.24
2023-04-11T01:20:37.473Z,5.76
2023-04-11T01:21:09.979Z,7.52
2023-04-11T01:21:42.459Z,10.16
2023-04-11T01:22:14.961Z,9.84
2023-04-11T01:22:47.463Z,7.76
2023-04-11T01:23:19.908Z,6.80
2023-04-11T01:23:52.394Z,8.00
2023-04-11T01:24:24.888Z,8.24
2023-04-11T01:24:57.399Z,8.72
2023-04-11T01:25:29.864Z,10.32
2023-04-11T01:26:02.381Z,8.88
2023-04-11T01:26:34.855Z,9.36
2023-04-11T01:27:07.365Z,8.24
2023-04-11T01:27:39.872Z,7.28
2023-04-11T01:28:12.292Z,9.28
2023-04-11T01:28:44.766Z,7.36
2023-04-11T01:29:17.304Z,9.68
2023-04-11T01:29:49.801Z,9.92
2023-04-11T01:30:22.293Z,7.04
2023-04-11T01:30:54.829Z,9.52
2023-04-11T01:31:27.258Z,10.16
2023-04-11T01:31:59.760Z,11.21
2023-04-11T01:32:32.283Z,9.04
2023-04-11T01:33:04.772Z,8.32
2023-04-11T01:33:37.178Z,13.69
2023-04-11T01:34:09.693Z,8.48
2023-04-11T01:34:42.197Z,6.88
2023-04-11T01:35:14.656Z,7.28
2023-04-11T01:35:47.177Z,6.88
2023-04-11T01:36:19.642Z,10.97
2023-04-11T01:36:52.142Z,8.56
2023-04-11T01:37:24.585Z,7.52
2023-04-11T01:37:57.069Z,12.41
2023-04-11T01:38:29.539Z,11.13
2023-04-11T01:39:02.038Z,6.48
2023-04-11T01:39:34.509Z,9.28
2023-04-11T01:40:07.001Z,10.89
2023-04-11T01:40:39.460Z,6.56
2023-04-11T01:41:11.926Z,4.56
2023-04-11T01:41:44.408Z,5.12
2023-04-11T01:42:16.877Z,6.00
2023-04-11T01:42:49.380Z,10.24
2023-04-11T01:43:21.837Z,9.20
2023-04-11T01:43:54.368Z,6.48
2023-04-11T01:44:26.819Z,5.20
2023-04-11T01:44:59.305Z,6.80
2023-04-11T01:45:31.804Z,10.08
2023-04-11T01:46:04.319Z,10.16
2023-04-11T01:46:36.784Z,7.68
2023-04-11T01:47:09.284Z,6.72
2023-04-11T01:47:41.822Z,9.44
2023-04-11T01:48:14.368Z,6.40
2023-04-11T01:48:46.785Z,4.72
2023-04-11T01:49:19.220Z,4.56
2023-04-11T01:49:51.709Z,4.80
2023-04-11T01:50:24.166Z,4.64
2023-04-11T01:50:56.632Z,4.40
2023-04-11T01:51:29.126Z,6.24
2023-04-11T01:52:01.602Z,4.56
2023-04-11T01:52:34.115Z,5.12
2023-04-11T01:53:06.574Z,7.84
2023-04-11T01:53:39.052Z,6.80
2023-04-11T01:54:11.543Z,13.21
2023-04-11T01:54:44.057Z,8.24
2023-04-11T01:55:16.513Z,7.04
2023-04-11T01:55:48.995Z,8.16
2023-04-11T01:56:21.507Z,6.24
2023-04-11T01:56:53.996Z,6.80
2023-04-11T01:57:26.446Z,7.52
2023-04-11T01:57:58.921Z,9.04
2023-04-11T01:58:31.418Z,7.68
2023-04-11T01:59:03.894Z,4.64
2023-04-11T01:59:36.385Z,2.96
2023-04-11T02:00:08.888Z,4.24
2023-04-11T02:00:41.349Z,8.16
2023-04-11T02:01:13.837Z,4.72
2023-04-11T02:01:46.371Z,6.00
2023-04-11T02:02:18.912Z,7.92
2023-04-11T02:02:51.393Z,10.48
2023-04-11T02:03:23.884Z,10.48
2023-04-11T02:03:56.305Z,8.32
2023-04-11T02:04:28.807Z,5.92
2023-04-11T02:05:01.229Z,6.56
2023-04-11T02:05:33.737Z,7.12
2023-04-11T02:06:06.199Z,6.24
2023-04-11T02:06:38.677Z,10.00
2023-04-11T02:07:11.137Z,7.04
2023-04-11T02:07:43.674Z,7.76
2023-04-11T02:08:16.156Z,8.96
2023-04-11T02:08:48.622Z,7.12
2023-04-11T02:09:21.086Z,6.24
2023-04-11T02:09:53.579Z,7.52
2023-04-11T02:10:26.086Z,5.04
2023-04-11T02:10:58.598Z,4.00
2023-04-11T02:11:31.103Z,4.88
2023-04-11T02:12:03.590Z,6.96
2023-04-11T02:12:36.071Z,7.76
2023-04-11T02:13:08.566Z,10.97
2023-04-11T02:13:41.052Z,7.20
2023-04-11T02:14:13.579Z,5.84
2023-04-11T02:14:46.079Z,4.64
2023-04-11T02:15:18.534Z,5.68
2023-04-11T02:15:51.183Z,2.32
2023-04-11T02:16:23.723Z,7.04
2023-04-11T02:16:56.091Z,4.16
2023-04-11T02:17:28.634Z,7.28
2023-04-11T02:18:01.137Z,9.20
2023-04-11T02:18:33.563Z,8.24
2023-04-11T02:19:06.075Z,8.40
2023-04-11T02:19:38.536Z,10.00
2023-04-11T02:20:11.013Z,5.92
2023-04-11T02:20:43.484Z,5.12
2023-04-11T02:21:15.939Z,11.05
2023-04-11T02:21:48.446Z,7.76
2023-04-11T02:22:20.947Z,12.33
2023-04-11T02:22:53.436Z,11.13
2023-04-11T02:23:25.906Z,8.40
2023-04-11T02:23:59.673Z,5.12
2023-04-11T02:24:30.883Z,6.80
2023-04-11T02:25:03.378Z,7.92
2023-04-11T02:25:35.890Z,5.76
2023-04-11T02:26:08.363Z,5.52
2023-04-11T02:26:40.834Z,4.40
2023-04-11T02:27:13.324Z,6.00
2023-04-11T02:27:45.784Z,7.04
2023-04-11T02:28:18.300Z,6.64
2023-04-11T02:28:50.784Z,6.48
2023-04-11T02:29:23.266Z,5.52
2023-04-11T02:29:55.756Z,6.88
2023-04-11T02:30:28.317Z,6.00
2023-04-11T02:31:00.868Z,6.08
2023-04-11T02:31:33.421Z,3.04
2023-04-11T02:32:05.875Z,5.84
2023-04-11T02:32:38.372Z,6.88
2023-04-11T02:33:10.857Z,7.28
2023-04-11T02:33:43.322Z,6.64
2023-04-11T02:34:15.812Z,6.80
2023-04-11T02:34:48.299Z,10.32
2023-04-11T02:35:20.777Z,5.36
2023-04-11T02:35:53.301Z,6.16
2023-04-11T02:36:25.744Z,3.92
2023-04-11T02:36:58.220Z,10.08
2023-04-11T02:37:30.702Z,10.08
2023-04-11T02:38:03.229Z,10.48
2023-04-11T02:38:35.705Z,11.85
2023-04-11T02:39:08.174Z,9.76
2023-04-11T02:39:40.692Z,9.20
2023-04-11T02:40:13.232Z,6.64
2023-04-11T02:40:45.725Z,6.72
2023-04-11T02:41:18.206Z,6.48
2023-04-11T02:41:50.721Z,6.88
2023-04-11T02:42:23.242Z,6.96
2023-04-11T02:42:55.724Z,4.80
2023-04-11T02:43:28.253Z,7.92
2023-04-11T02:44:00.731Z,7.36
2023-04-11T02:44:33.280Z,7.60
2023-04-11T02:45:05.787Z,10.97
2023-04-11T02:45:38.248Z,7.28
2023-04-11T02:46:13.375Z,5.92
2023-04-11T02:46:43.264Z,6.08
2023-04-11T02:47:15.744Z,8.72
2023-04-11T02:47:48.194Z,9.28
2023-04-11T02:48:20.652Z,6.80
2023-04-11T02:48:53.283Z,8.88
2023-04-11T02:49:25.695Z,10.32
2023-04-11T02:49:58.190Z,7.52
2023-04-11T02:50:30.693Z,7.68
2023-04-11T02:51:03.177Z,7.12
2023-04-11T02:51:35.673Z,7.20
2023-04-11T02:52:08.192Z,6.24
2023-04-11T02:52:40.669Z,5.92
2023-04-11T02:53:13.190Z,8.96
2023-04-11T02:53:45.647Z,8.96
2023-04-11T02:54:18.122Z,7.28
2023-04-11T02:54:50.636Z,4.00
2023-04-11T02:55:23.250Z,9.12
2023-04-11T02:55:55.727Z,8.56
2023-04-11T02:56:28.219Z,6.08
2023-04-11T02:57:00.694Z,5.92
2023-04-11T02:57:33.175Z,9.52
2023-04-11T02:58:05.646Z,7.52
2023-04-11T02:58:38.170Z,9.12
2023-04-11T02:59:10.649Z,4.88
2023-04-11T02:59:43.160Z,3.28
2023-04-11T03:00:15.620Z,6.64
2023-04-11T03:00:48.124Z,5.12
2023-04-11T03:01:20.649Z,8.08
2023-04-11T03:01:53.256Z,9.28
2023-04-11T03:02:25.815Z,9.76
2023-04-11T03:02:58.157Z,11.77
2023-04-11T03:03:30.690Z,6.40
2023-04-11T03:04:03.182Z,8.96
2023-04-11T03:04:35.752Z,8.88
2023-04-11T03:05:08.123Z,5.92
2023-04-11T03:05:40.593Z,11.05
2023-04-11T03:06:13.053Z,7.76
2023-04-11T03:06:45.523Z,4.80
2023-04-11T03:07:17.994Z,8.24
2023-04-11T03:07:50.474Z,5.28
2023-04-11T03:08:22.947Z,7.12
2023-04-11T03:08:55.553Z,8.96
2023-04-11T03:09:27.921Z,8.00
2023-04-11T03:10:00.314Z,6.16
2023-04-11T03:10:32.795Z,8.32
2023-04-11T03:11:05.245Z,11.53
2023-04-11T03:11:37.771Z,9.12
2023-04-11T03:12:10.260Z,10.73
2023-04-11T03:12:42.718Z,8.72
2023-04-11T03:13:15.175Z,8.24
2023-04-11T03:13:47.662Z,8.16
2023-04-11T03:14:20.120Z,9.20
2023-04-11T03:14:52.601Z,7.44
2023-04-11T03:15:25.087Z,6.64
2023-04-11T03:15:57.648Z,6.48
2023-04-11T03:16:30.165Z,5.84
2023-04-11T03:17:02.559Z,7.84
2023-04-11T03:17:35.097Z,3.68
2023-04-11T03:18:07.579Z,8.32
2023-04-11T03:18:40.072Z,13.77
2023-04-11T03:19:12.575Z,10.40
2023-04-11T03:19:45.077Z,9.60
2023-04-11T03:20:17.598Z,8.16
2023-04-11T03:20:50.074Z,13.21
2023-04-11T03:21:22.583Z,4.96
2023-04-11T03:21:55.042Z,4.56
2023-04-11T03:22:27.529Z,7.68
2023-04-11T03:23:00.012Z,8.64
2023-04-11T03:23:32.493Z,6.64
2023-04-11T03:24:04.960Z,9.76
2023-04-11T03:24:37.451Z,10.32
2023-04-11T03:25:09.954Z,12.81
2023-04-11T03:25:42.457Z,11.77
2023-04-11T03:26:14.918Z,9.20
2023-04-11T03:26:47.418Z,5.52
2023-04-11T03:27:19.913Z,3.28
2023-04-11T03:27:52.385Z,5.12
2023-04-11T03:28:24.911Z,6.00
2023-04-11T03:28:57.625Z,11.29
2023-04-11T03:29:29.888Z,6.08
2023-04-11T03:30:02.388Z,8.88
2023-04-11T03:30:34.841Z,9.12
2023-04-11T03:31:07.375Z,10.08
2023-04-11T03:31:39.867Z,8.08
2023-04-11T03:32:12.354Z,10.00
2023-04-11T03:32:44.895Z,7.52
2023-04-11T03:33:17.338Z,14.81
2023-04-11T03:33:49.855Z,6.48
2023-04-11T03:34:22.298Z,6.80
2023-04-11T03:34:54.789Z,9.04
2023-04-11T03:35:27.283Z,7.92
2023-04-11T03:35:59.759Z,6.96
2023-04-11T03:36:32.227Z,7.36
2023-04-11T03:37:04.713Z,7.68
2023-04-11T03:37:37.174Z,3.84
2023-04-11T03:38:09.662Z,7.68
2023-04-11T03:38:42.201Z,5.76
2023-04-11T03:39:14.685Z,5.04
2023-04-11T03:39:47.167Z,5.60
2023-04-11T03:40:19.662Z,10.32
2023-04-11T03:40:52.157Z,6.56
2023-04-11T03:41:24.650Z,4.80
2023-04-11T03:41:57.155Z,3.76
2023-04-11T03:42:29.631Z,6.08
2023-04-11T03:43:03.817Z,3.20
2023-04-11T03:43:34.560Z,6.80
2023-04-11T03:44:07.054Z,6.56
2023-04-11T03:44:39.528Z,4.72
2023-04-11T03:45:12.037Z,6.16
2023-04-11T03:45:44.493Z,5.68
2023-04-11T03:46:17.003Z,7.28
2023-04-11T03:46:49.489Z,4.80
2023-04-11T03:47:21.968Z,3.28
2023-04-11T03:47:54.478Z,7.04
2023-04-11T03:48:26.943Z,5.92
2023-04-11T03:48:59.430Z,9.68
2023-04-11T03:49:31.930Z,5.76
2023-04-11T03:50:04.417Z,6.64
2023-04-11T03:50:36.912Z,7.28
2023-04-11T03:51:09.417Z,8.80
2023-04-11T03:51:41.936Z,9.28
2023-04-11T03:52:14.438Z,4.08
2023-04-11T03:52:46.917Z,8.40
2023-04-11T03:53:19.460Z,6.40
2023-04-11T03:53:51.928Z,8.08
2023-04-11T03:54:24.405Z,6.80
2023-04-11T03:54:56.903Z,5.44
2023-04-11T03:55:29.372Z,9.28
2023-04-11T03:56:01.908Z,5.76
2023-04-11T03:56:34.370Z,5.52
2023-04-11T03:57:06.906Z,9.36
2023-04-11T03:57:39.377Z,5.44
2023-04-11T03:58:11.880Z,10.24
2023-04-11T03:58:44.325Z,6.32
2023-04-11T03:59:16.851Z,4.08
2023-04-11T03:59:49.323Z,5.28
2023-04-11T04:00:21.822Z,7.28
2023-04-11T04:00:54.307Z,5.04
2023-04-11T04:01:26.766Z,7.84
2023-04-11T04:01:59.328Z,15.37
2023-04-11T04:02:31.926Z,8.24
2023-04-11T04:03:04.476Z,13.37
2023-04-11T04:03:37.058Z,4.56
2023-04-11T04:04:09.417Z,5.60
2023-04-11T04:04:41.914Z,9.76
2023-04-11T04:05:14.322Z,10.24
2023-04-11T04:05:46.783Z,7.84
2023-04-11T04:06:19.218Z,3.84
2023-04-11T04:06:51.785Z,4.32
2023-04-11T04:07:24.283Z,4.88
2023-04-11T04:07:56.811Z,3.12
2023-04-11T04:08:29.340Z,4.96
2023-04-11T04:09:01.940Z,9.44
2023-04-11T04:09:34.458Z,8.72
2023-04-11T04:10:06.978Z,10.16
2023-04-11T04:10:39.601Z,6.32
2023-04-11T04:11:12.125Z,4.56
2023-04-11T04:11:44.587Z,4.96
2023-04-11T04:12:17.075Z,6.72
2023-04-11T04:12:49.554Z,5.12
2023-04-11T04:13:22.055Z,10.40
2023-04-11T04:13:54.787Z,6.88
2023-04-11T04:14:27.006Z,7.12
2023-04-11T04:14:59.500Z,8.48
2023-04-11T04:15:32.020Z,6.00
2023-04-11T04:16:04.538Z,3.52
2023-04-11T04:16:36.999Z,10.08
2023-04-11T04:17:16.517Z,11.53
2023-04-11T04:17:49.054Z,7.20
2023-04-11T04:18:21.487Z,7.20
2023-04-11T04:18:53.957Z,3.92
2023-04-11T04:19:26.444Z,8.64
2023-04-11T04:19:58.954Z,11.77
2023-04-11T04:20:31.486Z,8.72
2023-04-11T04:21:03.978Z,7.68
2023-04-11T04:21:36.456Z,8.40
2023-04-11T04:22:08.914Z,7.92
2023-04-11T04:22:41.392Z,8.96
2023-04-11T04:23:13.875Z,5.84
2023-04-11T04:23:46.386Z,10.24
2023-04-11T04:24:18.865Z,7.52
2023-04-11T04:24:51.352Z,6.96
2023-04-11T04:25:25.523Z,11.37
2023-04-11T04:25:56.327Z,8.32
2023-04-11T04:26:28.788Z,9.84
2023-04-11T04:27:01.293Z,7.76
2023-04-11T04:27:33.745Z,8.00
2023-04-11T04:28:06.250Z,8.32
2023-04-11T04:28:38.717Z,8.00
2023-04-11T04:29:11.227Z,10.16
2023-04-11T04:29:43.703Z,5.92
2023-04-11T04:30:16.210Z,6.40
2023-04-11T04:30:48.700Z,12.81
2023-04-11T04:31:21.235Z,11.69
2023-04-11T04:31:53.776Z,9.04
2023-04-11T04:32:26.277Z,12.57
2023-04-11T04:32:58.824Z,11.77
2023-04-11T04:33:31.236Z,7.44
2023-04-11T04:34:03.732Z,10.32
2023-04-11T04:34:36.201Z,11.69
2023-04-11T04:35:08.680Z,8.00
2023-04-11T04:35:41.160Z,5.36
2023-04-11T04:36:13.647Z,10.00
2023-04-11T04:36:46.139Z,9.12
2023-04-11T04:37:18.619Z,4.72
2023-04-11T04:37:51.094Z,7.44
2023-04-11T04:38:23.569Z,5.68
2023-04-11T04:38:56.075Z,8.24
2023-04-11T04:39:28.567Z,7.20
2023-04-11T04:40:01.048Z,9.76
2023-04-11T04:40:33.523Z,12.01
2023-04-11T04:41:06.051Z,13.37
2023-04-11T04:41:38.538Z,14.09
2023-04-11T04:42:11.077Z,10.89
2023-04-11T04:42:43.562Z,12.33
2023-04-11T04:43:16.050Z,13.77
2023-04-11T04:43:48.547Z,11.37
2023-04-11T04:44:21.024Z,8.96
2023-04-11T04:44:53.538Z,9.12
2023-04-11T04:45:26.001Z,7.20
2023-04-11T04:45:58.617Z,7.44
2023-04-11T04:46:30.973Z,6.08
2023-04-11T04:47:03.456Z,14.65
2023-04-11T04:47:35.942Z,7.92
2023-04-11T04:48:08.518Z,9.20
2023-04-11T04:48:40.922Z,6.08
2023-04-11T04:49:13.408Z,8.48
2023-04-11T04:49:45.929Z,8.32
2023-04-11T04:50:18.377Z,6.24
2023-04-11T04:50:50.885Z,13.21
2023-04-11T04:51:23.387Z,12.49
2023-04-11T04:51:55.899Z,7.36
2023-04-11T04:52:28.378Z,11.13
2023-04-11T04:53:00.828Z,10.81
2023-04-11T04:53:33.304Z,12.97
2023-04-11T04:54:05.787Z,11.21
2023-04-11T04:54:38.353Z,6.00
2023-04-11T04:55:10.869Z,8.08
2023-04-11T04:55:43.397Z,6.96
2023-04-11T04:56:15.855Z,10.57
2023-04-11T04:56:48.403Z,6.88
2023-04-11T04:57:20.827Z,11.45
2023-04-11T04:57:53.319Z,5.28
2023-04-11T04:58:25.793Z,4.32
2023-04-11T04:58:58.312Z,6.40
2023-04-11T04:59:30.772Z,6.56
2023-04-11T05:00:03.286Z,7.20
2023-04-11T05:00:35.762Z,8.80
2023-04-11T05:01:08.308Z,7.68
2023-04-11T05:01:40.832Z,7.52
2023-04-11T05:02:13.321Z,8.16
2023-04-11T05:02:45.823Z,9.76
2023-04-11T05:03:18.296Z,7.76
2023-04-11T05:03:50.764Z,8.24
2023-04-11T05:04:23.316Z,6.40
2023-04-11T05:04:55.595Z,13.69
2023-04-11T05:05:28.068Z,12.25
2023-04-11T05:06:00.562Z,8.80
2023-04-11T05:06:33.065Z,10.48
2023-04-11T05:07:05.569Z,8.08
2023-04-11T05:07:38.018Z,6.56
2023-04-11T05:08:10.512Z,11.45
2023-04-11T05:08:43.006Z,12.73
2023-04-11T05:09:15.506Z,8.56
2023-04-11T05:09:48.034Z,7.20
2023-04-11T05:10:20.541Z,9.92
2023-04-11T05:10:53.033Z,11.05
2023-04-11T05:11:25.516Z,6.08
2023-04-11T05:11:58.012Z,8.88
2023-04-11T05:12:30.535Z,9.20
2023-04-11T05:13:03.029Z,10.08
2023-04-11T05:13:35.506Z,8.16
2023-04-11T05:14:08.011Z,7.04
2023-04-11T05:14:40.493Z,9.28
2023-04-11T05:15:13.003Z,7.92
2023-04-11T05:15:45.509Z,9.68
2023-04-11T05:16:18.075Z,11.77
2023-04-11T05:16:50.495Z,4.64
2023-04-11T05:17:24.705Z,3.92
2023-04-11T05:17:55.527Z,3.36
2023-04-11T05:18:27.920Z,5.68
2023-04-11T05:19:00.430Z,4.08
2023-04-11T05:19:32.880Z,11.53
2023-04-11T05:20:05.378Z,7.12
2023-04-11T05:20:37.912Z,8.48
2023-04-11T05:21:10.410Z,6.56
2023-04-11T05:21:42.890Z,7.92
2023-04-11T05:22:15.386Z,7.28
2023-04-11T05:22:48.226Z,5.12
2023-04-11T05:23:20.435Z,5.04
2023-04-11T05:23:52.943Z,5.60
2023-04-11T05:24:25.437Z,4.72
2023-04-11T05:24:57.942Z,5.04
2023-04-11T05:25:30.404Z,6.08
2023-04-11T05:26:02.878Z,5.36
2023-04-11T05:26:35.339Z,4.64
2023-04-11T05:27:07.853Z,1.84
2023-04-11T05:27:40.364Z,7.52
2023-04-11T05:28:12.850Z,4.72
2023-04-11T05:28:45.338Z,3.20
2023-04-11T05:29:17.898Z,3.84
2023-04-11T05:29:50.438Z,2.24
2023-04-11T05:30:22.956Z,3.92
2023-04-11T05:30:55.442Z,4.56
2023-04-11T05:31:27.908Z,4.32
2023-04-11T05:32:00.385Z,6.56
2023-04-11T05:32:32.928Z,6.88
2023-04-11T05:33:05.395Z,3.28
2023-04-11T05:33:37.857Z,4.64
2023-04-11T05:34:10.347Z,4.48
2023-04-11T05:34:42.825Z,1.68
2023-04-11T05:35:15.357Z,1.68
2023-04-11T05:35:47.891Z,0.96
2023-04-11T05:36:20.291Z,2.72
2023-04-11T05:36:52.774Z,2.72
2023-04-11T05:37:25.253Z,0.88
2023-04-11T05:37:57.774Z,1.12
2023-04-11T05:38:30.258Z,0.80
2023-04-11T05:39:02.752Z,4.08
2023-04-11T05:39:35.258Z,0.88
2023-04-11T05:40:07.776Z,2.24
2023-04-11T05:40:40.269Z,1.84
2023-04-11T05:41:12.767Z,2.80
2023-04-11T05:41:45.235Z,2.08
2023-04-11T05:42:17.753Z,2.24
2023-04-11T05:42:50.221Z,2.40
2023-04-11T05:43:22.715Z,0.80
2023-04-11T05:43:55.455Z,3.28
2023-04-11T05:44:27.647Z,1.44
2023-04-11T05:45:00.213Z,1.76
2023-04-11T05:45:32.652Z,3.04
2023-04-11T05:46:05.145Z,4.40
2023-04-11T05:46:37.601Z,3.68
2023-04-11T05:47:10.044Z,3.84
2023-04-11T05:47:42.527Z,2.32
2023-04-11T05:48:16.038Z,0.96
2023-04-11T05:48:47.483Z,2.80
2023-04-11T05:49:20.101Z,1.84
2023-04-11T05:49:52.614Z,1.28
2023-04-11T05:50:25.105Z,0.96
2023-04-11T05:50:57.617Z,3.20
2023-04-11T05:51:30.083Z,0.72
2023-04-11T05:52:02.587Z,0.72
2023-04-11T05:52:35.062Z,0.96
2023-04-11T05:53:07.540Z,1.60
2023-04-11T05:53:40.009Z,1.52
2023-04-11T05:54:12.469Z,0.08
2023-04-11T05:54:44.991Z,1.52
2023-04-11T05:55:17.556Z,0.80
2023-04-11T05:55:50.037Z,0.00
2023-04-11T05:56:22.560Z,0.96
2023-04-11T05:56:55.093Z,1.44
2023-04-11T05:57:27.594Z,0.56
2023-04-11T05:58:00.105Z,0.32
2023-04-11T05:58:32.591Z,0.00
2023-04-11T05:59:05.071Z,0.88
2023-04-11T05:59:37.555Z,0.16
2023-04-11T06:00:10.098Z,0.08
2023-04-11T06:00:42.593Z,1.92
2023-04-11T06:01:15.123Z,0.48
2023-04-11T06:01:47.641Z,2.88
2023-04-11T06:02:20.199Z,0.72
2023-04-11T06:02:52.636Z,0.96
2023-04-11T06:03:25.171Z,2.96
2023-04-11T06:03:58.153Z,0.56
2023-04-11T06:04:30.102Z,0.72
2023-04-11T06:05:02.547Z,1.92
2023-04-11T06:05:35.035Z,2.72
2023-04-11T06:06:07.483Z,0.16
2023-04-11T06:06:39.960Z,0.56
2023-04-11T06:07:12.456Z,1.68
2023-04-11T06:07:44.939Z,0.96
2023-04-11T06:08:17.423Z,3.76
2023-04-11T06:08:49.914Z,2.48
2023-04-11T06:09:22.374Z,6.00
2023-04-11T06:09:54.844Z,3.44
2023-04-11T06:10:27.355Z,4.96
2023-04-11T06:10:59.856Z,6.56
2023-04-11T06:11:32.328Z,2.40
2023-04-11T06:12:04.798Z,5.28
2023-04-11T06:12:37.284Z,2.64
2023-04-11T06:13:09.783Z,3.36
2023-04-11T06:13:42.301Z,2.88
2023-04-11T06:14:14.764Z,3.68
2023-04-11T06:14:47.258Z,5.28
2023-04-11T06:15:19.723Z,4.40
2023-04-11T06:15:52.272Z,3.20
2023-04-11T06:16:24.791Z,2.72
2023-04-11T06:16:57.176Z,3.60
2023-04-11T06:17:29.709Z,3.04
2023-04-11T06:18:02.196Z,1.84
2023-04-11T06:18:34.617Z,4.16
2023-04-11T06:19:07.109Z,5.68
2023-04-11T06:19:39.585Z,3.28
2023-04-11T06:20:12.082Z,4.08
2023-04-11T06:20:44.564Z,6.08
2023-04-11T06:21:17.056Z,4.00
2023-04-11T06:21:49.538Z,3.76
2023-04-11T06:22:21.992Z,7.04
2023-04-11T06:22:54.457Z,5.92
2023-04-11T06:23:26.957Z,4.64
2023-04-11T06:23:59.477Z,6.00
2023-04-11T06:24:31.967Z,6.56
2023-04-11T06:25:04.445Z,4.16
2023-04-11T06:25:36.900Z,2.32
2023-04-11T06:26:11.323Z,2.56
2023-04-11T06:26:41.867Z,3.20
2023-04-11T06:27:14.373Z,3.28
2023-04-11T06:27:46.875Z,6.40
2023-04-11T06:28:19.373Z,10.97
2023-04-11T06:28:51.874Z,7.60
2023-04-11T06:29:24.352Z,5.44
2023-04-11T06:29:56.843Z,1.92
2023-04-11T06:30:29.365Z,6.96
2023-04-11T06:31:01.867Z,9.92
2023-04-11T06:31:34.378Z,8.24
2023-04-11T06:32:06.741Z,7.84
2023-04-11T06:32:39.270Z,12.09
2023-04-11T06:33:11.840Z,5.84
2023-04-11T06:33:44.200Z,4.32
2023-04-11T06:34:16.706Z,5.76
2023-04-11T06:34:49.266Z,4.32
2023-04-11T06:35:21.736Z,5.20
2023-04-11T06:35:54.262Z,3.92
2023-04-11T06:36:26.753Z,5.44
2023-04-11T06:36:59.233Z,7.20
2023-04-11T06:37:31.721Z,2.80
2023-04-11T06:38:04.189Z,6.56
2023-04-11T06:38:36.694Z,4.40
2023-04-11T06:39:09.134Z,9.28
2023-04-11T06:39:41.636Z,7.68
2023-04-11T06:40:14.144Z,4.72
2023-04-11T06:40:46.628Z,6.48
2023-04-11T06:41:19.133Z,3.92
2023-04-11T06:41:51.634Z,4.00
2023-04-11T06:42:24.126Z,5.12
2023-04-11T06:42:56.580Z,2.80
2023-04-11T06:43:29.053Z,5.04
2023-04-11T06:44:01.566Z,4.16
2023-04-11T06:44:34.064Z,6.40
2023-04-11T06:45:06.520Z,3.68
2023-04-11T06:45:38.987Z,3.36
2023-04-11T06:46:11.505Z,4.88
2023-04-11T06:46:44.014Z,2.16
2023-04-11T06:47:16.439Z,4.24
2023-04-11T06:47:48.955Z,3.84
2023-04-11T06:48:21.412Z,4.00
2023-04-11T06:48:53.880Z,8.64
2023-04-11T06:49:26.392Z,8.48
2023-04-11T06:49:58.923Z,6.56
2023-04-11T06:50:31.434Z,6.00
2023-04-11T06:51:03.934Z,8.16
2023-04-11T06:51:36.373Z,12.17
2023-04-11T06:52:08.823Z,7.68
2023-04-11T06:52:41.303Z,4.56
2023-04-11T06:53:13.819Z,3.84
2023-04-11T06:53:46.247Z,7.12
2023-04-11T06:54:18.757Z,2.40
2023-04-11T06:54:51.258Z,3.28
2023-04-11T06:55:23.766Z,1.92
2023-04-11T06:55:56.268Z,5.52
2023-04-11T06:56:28.775Z,9.12
2023-04-11T06:57:01.298Z,4.80
2023-04-11T06:57:33.762Z,4.48
2023-04-11T06:58:06.219Z,11.45
2023-04-11T06:58:38.714Z,9.28
2023-04-11T06:59:11.253Z,8.00
2023-04-11T06:59:43.728Z,13.53
2023-04-11T07:00:16.216Z,7.92
2023-04-11T07:00:48.710Z,3.28
2023-04-11T07:01:21.279Z,2.48
2023-04-11T07:01:53.754Z,3.20
2023-04-11T07:02:45.743Z,5.52
2023-04-11T07:03:18.182Z,4.32
2023-04-11T07:03:50.629Z,2.56
2023-04-11T07:04:23.179Z,1.60
2023-04-11T07:04:55.693Z,7.44
2023-04-11T07:05:28.013Z,4.64
2023-04-11T07:06:00.477Z,3.76
2023-04-11T07:06:32.965Z,5.76
2023-04-11T07:07:05.436Z,3.92
2023-04-11T07:07:37.960Z,4.08
2023-04-11T07:08:10.424Z,8.08
2023-04-11T07:08:42.997Z,8.80
2023-04-11T07:09:15.489Z,8.00
2023-04-11T07:09:48.066Z,7.52
2023-04-11T07:10:20.544Z,4.88